sensor_id;sensor_type;location;lat;lon;timestamp;P1;durP1;ratioP1;P2;durP2;ratioP2
16766;SDS011;8501;49.926;8.404;2023-04-29T00:00:27;9.67;;;6.97;;
16766;SDS011;8501;49.926;8.404;2023-04-29T00:02:53;8.47;;;7.40;;
16766;SDS011;8501;49.926;8.404;2023-04-29T00:05:20;9.10;;;6.90;;
16766;SDS011;8501;49.926;8.404;2023-04-29T00:07:45;8.07;;;6.60;;
16766;SDS011;8501;49.926;8.404;2023-04-29T00:10:11;9.53;;;6.87;;
16766;SDS011;8501;49.926;8.404;2023-04-29T00:12:38;8.20;;;6.30;;
16766;SDS011;8501;49.926;8.404;2023-04-29T00:15:05;10.67;;;5.73;;
16766;SDS011;8501;49.926;8.404;2023-04-29T00:17:31;7.27;;;6.13;;
16766;SDS011;8501;49.926;8.404;2023-04-29T00:19:56;8.20;;;6.90;;
16766;SDS011;8501;49.926;8.404;2023-04-29T00:22:22;7.23;;;6.07;;
16766;SDS011;8501;49.926;8.404;2023-04-29T00:24:47;7.80;;;6.23;;
16766;SDS011;8501;49.926;8.404;2023-04-29T00:27:13;8.73;;;6.50;;
16766;SDS011;8501;49.926;8.404;2023-04-29T00:29:39;9.07;;;6.50;;
16766;SDS011;8501;49.926;8.404;2023-04-29T00:32:04;8.37;;;6.30;;
16766;SDS011;8501;49.926;8.404;2023-04-29T00:34:30;9.90;;;7.23;;
16766;SDS011;8501;49.926;8.404;2023-04-29T00:36:55;8.40;;;7.27;;
16766;SDS011;8501;49.926;8.404;2023-04-29T00:39:21;9.47;;;7.67;;
16766;SDS011;8501;49.926;8.404;2023-04-29T00:41:47;11.70;;;7.53;;
16766;SDS011;8501;49.926;8.404;2023-04-29T00:44:12;9.23;;;7.60;;
16766;SDS011;8501;49.926;8.404;2023-04-29T00:46:38;9.87;;;7.40;;
16766;SDS011;8501;49.926;8.404;2023-04-29T00:49:04;8.30;;;7.00;;
16766;SDS011;8501;49.926;8.404;2023-04-29T00:51:29;9.30;;;6.97;;
16766;SDS011;8501;49.926;8.404;2023-04-29T00:53:55;10.00;;;6.90;;
16766;SDS011;8501;49.926;8.404;2023-04-29T00:56:21;8.07;;;6.70;;
16766;SDS011;8501;49.926;8.404;2023-04-29T00:58:46;9.80;;;7.30;;
16766;SDS011;8501;49.926;8.404;2023-04-29T01:01:17;9.70;;;8.03;;
16766;SDS011;8501;49.926;8.404;2023-04-29T01:03:43;9.93;;;8.20;;
16766;SDS011;8501;49.926;8.404;2023-04-29T01:06:19;9.40;;;8.00;;
16766;SDS011;8501;49.926;8.404;2023-04-29T01:09:01;10.13;;;7.93;;
16766;SDS011;8501;49.926;8.404;2023-04-29T01:11:29;12.13;;;8.43;;
16766;SDS011;8501;49.926;8.404;2023-04-29T01:13:59;11.20;;;7.83;;
16766;SDS011;8501;49.926;8.404;2023-04-29T01:16:39;7.67;;;6.80;;
16766;SDS011;8501;49.926;8.404;2023-04-29T01:19:19;7.20;;;6.17;;
16766;SDS011;8501;49.926;8.404;2023-04-29T01:21:57;7.13;;;6.10;;
16766;SDS011;8501;49.926;8.404;2023-04-29T01:24:23;8.27;;;5.93;;
16766;SDS011;8501;49.926;8.404;2023-04-29T01:26:56;7.47;;;6.17;;
16766;SDS011;8501;49.926;8.404;2023-04-29T01:32:14;9.33;;;6.80;;
16766;SDS011;8501;49.926;8.404;2023-04-29T01:34:54;8.10;;;6.87;;
16766;SDS011;8501;49.926;8.404;2023-04-29T01:37:33;8.03;;;6.87;;
16766;SDS011;8501;49.926;8.404;2023-04-29T01:43:04;10.63;;;6.90;;
16766;SDS011;8501;49.926;8.404;2023-04-29T01:45:29;8.50;;;6.90;;
16766;SDS011;8501;49.926;8.404;2023-04-29T01:47:58;9.37;;;6.30;;
16766;SDS011;8501;49.926;8.404;2023-04-29T01:50:24;8.57;;;6.40;;
16766;SDS011;8501;49.926;8.404;2023-04-29T01:52:50;8.97;;;6.53;;
16766;SDS011;8501;49.926;8.404;2023-04-29T01:55:16;8.23;;;6.20;;
16766;SDS011;8501;49.926;8.404;2023-04-29T01:57:42;8.47;;;6.37;;
16766;SDS011;8501;49.926;8.404;2023-04-29T02:00:08;9.27;;;6.77;;
16766;SDS011;8501;49.926;8.404;2023-04-29T02:02:34;7.47;;;6.23;;
16766;SDS011;8501;49.926;8.404;2023-04-29T02:05:00;6.70;;;5.70;;
16766;SDS011;8501;49.926;8.404;2023-04-29T02:07:26;8.47;;;5.30;;
16766;SDS011;8501;49.926;8.404;2023-04-29T02:09:52;5.47;;;4.47;;
16766;SDS011;8501;49.926;8.404;2023-04-29T02:12:17;6.43;;;4.60;;
16766;SDS011;8501;49.926;8.404;2023-04-29T02:14:43;5.50;;;3.97;;
16766;SDS011;8501;49.926;8.404;2023-04-29T02:17:08;6.17;;;4.00;;
16766;SDS011;8501;49.926;8.404;2023-04-29T02:19:34;3.97;;;3.40;;
16766;SDS011;8501;49.926;8.404;2023-04-29T02:21:59;3.70;;;3.30;;
16766;SDS011;8501;49.926;8.404;2023-04-29T02:24:25;4.90;;;3.50;;
16766;SDS011;8501;49.926;8.404;2023-04-29T02:26:51;4.50;;;3.50;;
16766;SDS011;8501;49.926;8.404;2023-04-29T02:29:17;4.03;;;3.63;;
16766;SDS011;8501;49.926;8.404;2023-04-29T02:31:43;5.80;;;3.83;;
16766;SDS011;8501;49.926;8.404;2023-04-29T02:34:08;5.13;;;4.00;;
16766;SDS011;8501;49.926;8.404;2023-04-29T02:36:34;9.73;;;4.80;;
16766;SDS011;8501;49.926;8.404;2023-04-29T02:38:59;5.67;;;4.53;;
16766;SDS011;8501;49.926;8.404;2023-04-29T02:41:25;5.87;;;4.53;;
16766;SDS011;8501;49.926;8.404;2023-04-29T02:43:51;5.27;;;4.77;;
16766;SDS011;8501;49.926;8.404;2023-04-29T02:46:17;6.00;;;4.80;;
16766;SDS011;8501;49.926;8.404;2023-04-29T02:48:42;5.20;;;4.50;;
16766;SDS011;8501;49.926;8.404;2023-04-29T02:51:08;4.80;;;4.30;;
16766;SDS011;8501;49.926;8.404;2023-04-29T02:53:34;5.33;;;4.40;;
16766;SDS011;8501;49.926;8.404;2023-04-29T02:56:00;4.33;;;3.93;;
16766;SDS011;8501;49.926;8.404;2023-04-29T02:58:25;4.03;;;3.60;;
16766;SDS011;8501;49.926;8.404;2023-04-29T03:00:51;4.10;;;3.70;;
16766;SDS011;8501;49.926;8.404;2023-04-29T03:03:17;4.97;;;3.70;;
16766;SDS011;8501;49.926;8.404;2023-04-29T03:05:42;4.93;;;3.80;;
16766;SDS011;8501;49.926;8.404;2023-04-29T03:08:08;3.70;;;3.40;;
16766;SDS011;8501;49.926;8.404;2023-04-29T03:10:34;4.30;;;3.70;;
16766;SDS011;8501;49.926;8.404;2023-04-29T03:13:00;3.87;;;3.23;;
16766;SDS011;8501;49.926;8.404;2023-04-29T03:15:25;3.77;;;3.37;;
16766;SDS011;8501;49.926;8.404;2023-04-29T03:17:51;6.20;;;3.30;;
16766;SDS011;8501;49.926;8.404;2023-04-29T03:20:16;4.90;;;3.10;;
16766;SDS011;8501;49.926;8.404;2023-04-29T03:22:43;4.10;;;3.40;;
16766;SDS011;8501;49.926;8.404;2023-04-29T03:25:08;6.23;;;3.47;;
16766;SDS011;8501;49.926;8.404;2023-04-29T03:27:34;4.60;;;3.60;;
16766;SDS011;8501;49.926;8.404;2023-04-29T03:30:01;4.67;;;3.67;;
16766;SDS011;8501;49.926;8.404;2023-04-29T03:32:26;3.50;;;3.20;;
16766;SDS011;8501;49.926;8.404;2023-04-29T03:34:52;4.87;;;3.60;;
16766;SDS011;8501;49.926;8.404;2023-04-29T03:37:19;4.03;;;3.03;;
16766;SDS011;8501;49.926;8.404;2023-04-29T03:39:44;3.80;;;3.13;;
16766;SDS011;8501;49.926;8.404;2023-04-29T03:42:10;6.27;;;3.60;;
16766;SDS011;8501;49.926;8.404;2023-04-29T03:44:36;4.87;;;3.60;;
16766;SDS011;8501;49.926;8.404;2023-04-29T03:47:01;4.73;;;3.80;;
16766;SDS011;8501;49.926;8.404;2023-04-29T03:49:27;4.87;;;3.87;;
16766;SDS011;8501;49.926;8.404;2023-04-29T03:51:52;5.23;;;3.60;;
16766;SDS011;8501;49.926;8.404;2023-04-29T03:54:18;3.83;;;3.43;;
16766;SDS011;8501;49.926;8.404;2023-04-29T03:56:43;5.10;;;4.23;;
16766;SDS011;8501;49.926;8.404;2023-04-29T03:59:09;4.63;;;4.23;;
16766;SDS011;8501;49.926;8.404;2023-04-29T04:01:34;11.37;;;5.40;;
16766;SDS011;8501;49.926;8.404;2023-04-29T04:04:00;6.00;;;5.23;;
16766;SDS011;8501;49.926;8.404;2023-04-29T04:06:26;6.77;;;5.53;;
16766;SDS011;8501;49.926;8.404;2023-04-29T04:08:54;10.63;;;6.43;;
16766;SDS011;8501;49.926;8.404;2023-04-29T04:11:20;7.73;;;6.03;;
16766;SDS011;8501;49.926;8.404;2023-04-29T04:13:45;9.00;;;6.60;;
16766;SDS011;8501;49.926;8.404;2023-04-29T04:16:11;7.63;;;6.63;;
16766;SDS011;8501;49.926;8.404;2023-04-29T04:18:37;8.90;;;6.93;;
16766;SDS011;8501;49.926;8.404;2023-04-29T04:21:09;9.83;;;6.87;;
16766;SDS011;8501;49.926;8.404;2023-04-29T04:23:36;10.60;;;7.53;;
16766;SDS011;8501;49.926;8.404;2023-04-29T04:26:04;11.73;;;7.77;;
16766;SDS011;8501;49.926;8.404;2023-04-29T04:28:30;11.90;;;7.67;;
16766;SDS011;8501;49.926;8.404;2023-04-29T04:30:55;13.63;;;8.10;;
16766;SDS011;8501;49.926;8.404;2023-04-29T04:33:21;12.27;;;8.67;;
16766;SDS011;8501;49.926;8.404;2023-04-29T04:35:47;13.00;;;8.57;;
16766;SDS011;8501;49.926;8.404;2023-04-29T04:38:12;12.97;;;9.40;;
16766;SDS011;8501;49.926;8.404;2023-04-29T04:40:42;13.53;;;8.60;;
16766;SDS011;8501;49.926;8.404;2023-04-29T04:43:08;14.90;;;10.27;;
16766;SDS011;8501;49.926;8.404;2023-04-29T04:45:33;15.60;;;11.10;;
16766;SDS011;8501;49.926;8.404;2023-04-29T04:47:59;15.13;;;10.90;;
16766;SDS011;8501;49.926;8.404;2023-04-29T04:50:28;17.77;;;10.97;;
16766;SDS011;8501;49.926;8.404;2023-04-29T04:52:54;16.47;;;11.07;;
16766;SDS011;8501;49.926;8.404;2023-04-29T04:55:20;17.90;;;11.50;;
16766;SDS011;8501;49.926;8.404;2023-04-29T04:57:47;18.43;;;11.67;;
16766;SDS011;8501;49.926;8.404;2023-04-29T05:00:12;18.00;;;12.30;;
16766;SDS011;8501;49.926;8.404;2023-04-29T05:02:38;19.67;;;12.63;;
16766;SDS011;8501;49.926;8.404;2023-04-29T05:05:04;19.03;;;12.53;;
16766;SDS011;8501;49.926;8.404;2023-04-29T05:07:29;22.27;;;13.17;;
16766;SDS011;8501;49.926;8.404;2023-04-29T05:09:56;19.63;;;12.90;;
16766;SDS011;8501;49.926;8.404;2023-04-29T05:12:22;21.70;;;13.50;;
16766;SDS011;8501;49.926;8.404;2023-04-29T05:14:51;21.57;;;13.47;;
16766;SDS011;8501;49.926;8.404;2023-04-29T05:17:18;20.73;;;14.13;;
16766;SDS011;8501;49.926;8.404;2023-04-29T05:19:43;21.53;;;13.73;;
16766;SDS011;8501;49.926;8.404;2023-04-29T05:22:09;20.30;;;14.03;;
16766;SDS011;8501;49.926;8.404;2023-04-29T05:24:34;23.87;;;15.27;;
16766;SDS011;8501;49.926;8.404;2023-04-29T05:27:00;22.97;;;14.37;;
16766;SDS011;8501;49.926;8.404;2023-04-29T05:29:25;23.53;;;15.43;;
16766;SDS011;8501;49.926;8.404;2023-04-29T05:31:52;21.70;;;14.47;;
16766;SDS011;8501;49.926;8.404;2023-04-29T05:34:17;23.83;;;14.47;;
16766;SDS011;8501;49.926;8.404;2023-04-29T05:36:43;22.33;;;14.07;;
16766;SDS011;8501;49.926;8.404;2023-04-29T05:39:09;22.07;;;14.50;;
16766;SDS011;8501;49.926;8.404;2023-04-29T05:41:35;23.40;;;14.03;;
16766;SDS011;8501;49.926;8.404;2023-04-29T05:44:00;21.93;;;14.17;;
16766;SDS011;8501;49.926;8.404;2023-04-29T05:46:26;24.47;;;14.90;;
16766;SDS011;8501;49.926;8.404;2023-04-29T05:48:51;23.27;;;14.03;;
16766;SDS011;8501;49.926;8.404;2023-04-29T05:51:17;26.00;;;15.07;;
16766;SDS011;8501;49.926;8.404;2023-04-29T05:53:42;22.80;;;14.83;;
16766;SDS011;8501;49.926;8.404;2023-04-29T05:56:08;24.97;;;14.43;;
16766;SDS011;8501;49.926;8.404;2023-04-29T05:58:34;21.33;;;12.90;;
16766;SDS011;8501;49.926;8.404;2023-04-29T06:00:59;20.43;;;12.80;;
16766;SDS011;8501;49.926;8.404;2023-04-29T06:03:25;19.30;;;11.83;;
16766;SDS011;8501;49.926;8.404;2023-04-29T06:05:52;20.10;;;11.53;;
16766;SDS011;8501;49.926;8.404;2023-04-29T06:08:18;16.60;;;10.93;;
16766;SDS011;8501;49.926;8.404;2023-04-29T06:10:44;16.77;;;10.30;;
16766;SDS011;8501;49.926;8.404;2023-04-29T06:13:10;17.93;;;10.77;;
16766;SDS011;8501;49.926;8.404;2023-04-29T06:15:36;19.10;;;11.17;;
16766;SDS011;8501;49.926;8.404;2023-04-29T06:18:01;15.37;;;10.50;;
16766;SDS011;8501;49.926;8.404;2023-04-29T06:20:27;18.73;;;11.17;;
16766;SDS011;8501;49.926;8.404;2023-04-29T06:22:53;18.90;;;11.57;;
16766;SDS011;8501;49.926;8.404;2023-04-29T06:25:18;18.87;;;10.80;;
16766;SDS011;8501;49.926;8.404;2023-04-29T06:27:44;18.30;;;10.83;;
16766;SDS011;8501;49.926;8.404;2023-04-29T06:30:10;17.77;;;10.27;;
16766;SDS011;8501;49.926;8.404;2023-04-29T06:32:37;19.70;;;10.97;;
16766;SDS011;8501;49.926;8.404;2023-04-29T06:35:03;15.93;;;10.47;;
16766;SDS011;8501;49.926;8.404;2023-04-29T06:37:29;15.27;;;9.43;;
16766;SDS011;8501;49.926;8.404;2023-04-29T06:39:55;16.23;;;9.23;;
16766;SDS011;8501;49.926;8.404;2023-04-29T06:42:20;12.93;;;8.17;;
16766;SDS011;8501;49.926;8.404;2023-04-29T06:44:46;13.37;;;8.30;;
16766;SDS011;8501;49.926;8.404;2023-04-29T06:47:12;13.77;;;8.63;;
16766;SDS011;8501;49.926;8.404;2023-04-29T06:49:38;13.30;;;7.73;;
16766;SDS011;8501;49.926;8.404;2023-04-29T06:52:04;12.30;;;7.57;;
16766;SDS011;8501;49.926;8.404;2023-04-29T06:54:30;10.80;;;6.93;;
16766;SDS011;8501;49.926;8.404;2023-04-29T06:56:55;9.87;;;6.60;;
16766;SDS011;8501;49.926;8.404;2023-04-29T06:59:22;11.43;;;8.00;;
16766;SDS011;8501;49.926;8.404;2023-04-29T07:01:47;12.20;;;7.90;;
16766;SDS011;8501;49.926;8.404;2023-04-29T07:04:13;10.80;;;6.70;;
16766;SDS011;8501;49.926;8.404;2023-04-29T07:06:38;10.37;;;6.77;;
16766;SDS011;8501;49.926;8.404;2023-04-29T07:09:04;11.87;;;6.57;;
16766;SDS011;8501;49.926;8.404;2023-04-29T07:11:30;11.43;;;6.90;;
16766;SDS011;8501;49.926;8.404;2023-04-29T07:13:55;10.77;;;7.00;;
16766;SDS011;8501;49.926;8.404;2023-04-29T07:16:21;11.03;;;6.30;;
16766;SDS011;8501;49.926;8.404;2023-04-29T07:18:50;9.80;;;6.27;;
16766;SDS011;8501;49.926;8.404;2023-04-29T07:21:15;12.20;;;7.00;;
16766;SDS011;8501;49.926;8.404;2023-04-29T07:23:41;13.20;;;7.50;;
16766;SDS011;8501;49.926;8.404;2023-04-29T07:28:37;12.20;;;7.87;;
16766;SDS011;8501;49.926;8.404;2023-04-29T07:31:02;13.17;;;7.97;;
16766;SDS011;8501;49.926;8.404;2023-04-29T07:33:28;14.63;;;7.70;;
16766;SDS011;8501;49.926;8.404;2023-04-29T07:35:54;11.53;;;7.50;;
16766;SDS011;8501;49.926;8.404;2023-04-29T07:38:20;13.90;;;7.70;;
16766;SDS011;8501;49.926;8.404;2023-04-29T07:40:45;15.27;;;8.37;;
16766;SDS011;8501;49.926;8.404;2023-04-29T07:43:11;11.17;;;7.27;;
16766;SDS011;8501;49.926;8.404;2023-04-29T07:45:37;11.40;;;7.47;;
16766;SDS011;8501;49.926;8.404;2023-04-29T07:48:03;10.80;;;6.90;;
16766;SDS011;8501;49.926;8.404;2023-04-29T07:50:29;10.50;;;7.00;;
16766;SDS011;8501;49.926;8.404;2023-04-29T07:52:58;11.83;;;6.83;;
16766;SDS011;8501;49.926;8.404;2023-04-29T07:55:24;10.43;;;6.47;;
16766;SDS011;8501;49.926;8.404;2023-04-29T07:57:51;11.00;;;6.80;;
16766;SDS011;8501;49.926;8.404;2023-04-29T08:00:17;12.13;;;7.27;;
16766;SDS011;8501;49.926;8.404;2023-04-29T08:02:42;9.70;;;6.67;;
16766;SDS011;8501;49.926;8.404;2023-04-29T08:05:09;10.97;;;7.07;;
16766;SDS011;8501;49.926;8.404;2023-04-29T08:07:34;11.17;;;7.20;;
16766;SDS011;8501;49.926;8.404;2023-04-29T08:10:00;11.77;;;7.30;;
16766;SDS011;8501;49.926;8.404;2023-04-29T08:12:25;12.00;;;7.13;;
16766;SDS011;8501;49.926;8.404;2023-04-29T08:14:52;11.73;;;7.60;;
16766;SDS011;8501;49.926;8.404;2023-04-29T08:17:17;12.37;;;8.07;;
16766;SDS011;8501;49.926;8.404;2023-04-29T08:19:43;10.87;;;7.37;;
16766;SDS011;8501;49.926;8.404;2023-04-29T08:22:08;11.67;;;7.40;;
16766;SDS011;8501;49.926;8.404;2023-04-29T08:24:36;11.53;;;7.47;;
16766;SDS011;8501;49.926;8.404;2023-04-29T08:27:02;12.80;;;7.83;;
16766;SDS011;8501;49.926;8.404;2023-04-29T08:29:29;12.20;;;7.50;;
16766;SDS011;8501;49.926;8.404;2023-04-29T08:31:56;10.97;;;7.00;;
16766;SDS011;8501;49.926;8.404;2023-04-29T08:34:22;10.27;;;7.00;;
16766;SDS011;8501;49.926;8.404;2023-04-29T08:36:47;9.50;;;6.70;;
16766;SDS011;8501;49.926;8.404;2023-04-29T08:39:13;11.17;;;7.07;;
16766;SDS011;8501;49.926;8.404;2023-04-29T08:41:38;12.77;;;8.17;;
16766;SDS011;8501;49.926;8.404;2023-04-29T08:44:04;10.97;;;7.53;;
16766;SDS011;8501;49.926;8.404;2023-04-29T08:46:30;9.50;;;6.47;;
16766;SDS011;8501;49.926;8.404;2023-04-29T08:48:56;11.53;;;6.93;;
16766;SDS011;8501;49.926;8.404;2023-04-29T08:51:22;9.30;;;6.40;;
16766;SDS011;8501;49.926;8.404;2023-04-29T08:53:48;11.80;;;7.37;;
16766;SDS011;8501;49.926;8.404;2023-04-29T08:56:15;12.57;;;7.27;;
16766;SDS011;8501;49.926;8.404;2023-04-29T08:58:44;12.13;;;7.27;;
16766;SDS011;8501;49.926;8.404;2023-04-29T09:01:10;11.17;;;6.80;;
16766;SDS011;8501;49.926;8.404;2023-04-29T09:03:42;11.53;;;7.30;;
16766;SDS011;8501;49.926;8.404;2023-04-29T09:06:14;11.87;;;7.27;;
16766;SDS011;8501;49.926;8.404;2023-04-29T09:08:41;13.77;;;8.10;;
16766;SDS011;8501;49.926;8.404;2023-04-29T09:11:09;11.90;;;7.13;;
16766;SDS011;8501;49.926;8.404;2023-04-29T09:13:36;10.37;;;6.93;;
16766;SDS011;8501;49.926;8.404;2023-04-29T09:16:02;10.87;;;7.20;;
16766;SDS011;8501;49.926;8.404;2023-04-29T09:18:40;12.57;;;7.47;;
16766;SDS011;8501;49.926;8.404;2023-04-29T09:21:14;11.80;;;7.47;;
16766;SDS011;8501;49.926;8.404;2023-04-29T09:23:41;10.87;;;7.10;;
16766;SDS011;8501;49.926;8.404;2023-04-29T09:26:07;12.10;;;6.77;;
16766;SDS011;8501;49.926;8.404;2023-04-29T09:28:32;11.33;;;7.07;;
16766;SDS011;8501;49.926;8.404;2023-04-29T09:30:58;12.30;;;6.87;;
16766;SDS011;8501;49.926;8.404;2023-04-29T09:33:25;10.80;;;7.07;;
16766;SDS011;8501;49.926;8.404;2023-04-29T09:35:52;9.97;;;6.80;;
16766;SDS011;8501;49.926;8.404;2023-04-29T09:38:18;10.90;;;6.90;;
16766;SDS011;8501;49.926;8.404;2023-04-29T09:40:44;11.73;;;7.23;;
16766;SDS011;8501;49.926;8.404;2023-04-29T09:43:14;11.63;;;7.40;;
16766;SDS011;8501;49.926;8.404;2023-04-29T09:45:45;10.93;;;7.67;;
16766;SDS011;8501;49.926;8.404;2023-04-29T09:48:12;12.33;;;8.03;;
16766;SDS011;8501;49.926;8.404;2023-04-29T09:50:39;11.37;;;7.73;;
16766;SDS011;8501;49.926;8.404;2023-04-29T09:53:09;11.87;;;7.60;;
16766;SDS011;8501;49.926;8.404;2023-04-29T09:55:35;13.47;;;7.73;;
16766;SDS011;8501;49.926;8.404;2023-04-29T09:58:39;11.73;;;6.97;;
16766;SDS011;8501;49.926;8.404;2023-04-29T10:01:05;13.67;;;7.60;;
16766;SDS011;8501;49.926;8.404;2023-04-29T10:03:32;10.73;;;6.47;;
16766;SDS011;8501;49.926;8.404;2023-04-29T10:05:59;11.67;;;6.73;;
16766;SDS011;8501;49.926;8.404;2023-04-29T10:08:26;11.63;;;7.00;;
16766;SDS011;8501;49.926;8.404;2023-04-29T10:10:53;10.30;;;6.33;;
16766;SDS011;8501;49.926;8.404;2023-04-29T10:13:25;8.27;;;6.43;;
16766;SDS011;8501;49.926;8.404;2023-04-29T10:15:56;8.20;;;5.50;;
16766;SDS011;8501;49.926;8.404;2023-04-29T10:18:29;9.43;;;5.00;;
16766;SDS011;8501;49.926;8.404;2023-04-29T10:21:01;8.90;;;5.50;;
16766;SDS011;8501;49.926;8.404;2023-04-29T10:23:30;8.03;;;5.60;;
16766;SDS011;8501;49.926;8.404;2023-04-29T10:25:58;7.93;;;5.00;;
16766;SDS011;8501;49.926;8.404;2023-04-29T10:28:28;7.10;;;5.10;;
16766;SDS011;8501;49.926;8.404;2023-04-29T10:30:57;9.53;;;6.03;;
16766;SDS011;8501;49.926;8.404;2023-04-29T10:33:27;8.93;;;5.83;;
16766;SDS011;8501;49.926;8.404;2023-04-29T10:35:56;8.80;;;5.80;;
16766;SDS011;8501;49.926;8.404;2023-04-29T10:38:26;8.33;;;6.03;;
16766;SDS011;8501;49.926;8.404;2023-04-29T10:41:08;9.23;;;5.43;;
16766;SDS011;8501;49.926;8.404;2023-04-29T10:43:43;7.27;;;5.37;;
16766;SDS011;8501;49.926;8.404;2023-04-29T10:48:48;8.40;;;5.80;;
16766;SDS011;8501;49.926;8.404;2023-04-29T10:51:29;8.87;;;6.17;;
16766;SDS011;8501;49.926;8.404;2023-04-29T10:54:09;8.83;;;6.83;;
16766;SDS011;8501;49.926;8.404;2023-04-29T10:56:41;16.50;;;12.17;;
16766;SDS011;8501;49.926;8.404;2023-04-29T10:59:10;55.77;;;35.60;;
16766;SDS011;8501;49.926;8.404;2023-04-29T11:01:45;90.43;;;62.43;;
16766;SDS011;8501;49.926;8.404;2023-04-29T11:04:15;12.57;;;8.20;;
16766;SDS011;8501;49.926;8.404;2023-04-29T11:06:52;20.57;;;18.50;;
16766;SDS011;8501;49.926;8.404;2023-04-29T11:09:31;9.73;;;8.73;;
16766;SDS011;8501;49.926;8.404;2023-04-29T11:12:01;7.07;;;5.80;;
16766;SDS011;8501;49.926;8.404;2023-04-29T11:14:30;7.00;;;5.30;;
16766;SDS011;8501;49.926;8.404;2023-04-29T11:16:57;5.83;;;4.70;;
16766;SDS011;8501;49.926;8.404;2023-04-29T11:19:30;7.10;;;4.60;;
16766;SDS011;8501;49.926;8.404;2023-04-29T11:24:35;7.03;;;4.17;;
16766;SDS011;8501;49.926;8.404;2023-04-29T11:27:12;6.77;;;4.30;;
16766;SDS011;8501;49.926;8.404;2023-04-29T11:29:39;7.73;;;4.43;;
16766;SDS011;8501;49.926;8.404;2023-04-29T11:32:06;6.30;;;4.20;;
16766;SDS011;8501;49.926;8.404;2023-04-29T11:34:32;5.30;;;3.97;;
16766;SDS011;8501;49.926;8.404;2023-04-29T11:36:58;6.73;;;4.40;;
16766;SDS011;8501;49.926;8.404;2023-04-29T11:39:25;5.40;;;4.30;;
16766;SDS011;8501;49.926;8.404;2023-04-29T11:41:51;7.20;;;4.37;;
16766;SDS011;8501;49.926;8.404;2023-04-29T11:44:27;5.27;;;3.97;;
16766;SDS011;8501;49.926;8.404;2023-04-29T11:46:52;5.90;;;3.80;;
16766;SDS011;8501;49.926;8.404;2023-04-29T11:49:28;4.80;;;3.63;;
16766;SDS011;8501;49.926;8.404;2023-04-29T11:51:55;6.30;;;3.60;;
16766;SDS011;8501;49.926;8.404;2023-04-29T11:54:23;5.43;;;3.70;;
16766;SDS011;8501;49.926;8.404;2023-04-29T11:56:53;8.60;;;5.77;;
16766;SDS011;8501;49.926;8.404;2023-04-29T11:59:20;6.87;;;5.40;;
16766;SDS011;8501;49.926;8.404;2023-04-29T12:01:49;6.93;;;4.77;;
16766;SDS011;8501;49.926;8.404;2023-04-29T12:04:15;5.73;;;3.60;;
16766;SDS011;8501;49.926;8.404;2023-04-29T12:06:41;5.17;;;4.03;;
16766;SDS011;8501;49.926;8.404;2023-04-29T12:09:07;5.50;;;4.20;;
16766;SDS011;8501;49.926;8.404;2023-04-29T12:11:33;6.00;;;4.50;;
16766;SDS011;8501;49.926;8.404;2023-04-29T12:14:00;6.05;;;4.22;;
16766;SDS011;8501;49.926;8.404;2023-04-29T12:16:30;5.03;;;3.80;;
16766;SDS011;8501;49.926;8.404;2023-04-29T12:21:57;6.03;;;3.30;;
16766;SDS011;8501;49.926;8.404;2023-04-29T12:24:23;5.60;;;3.72;;
16766;SDS011;8501;49.926;8.404;2023-04-29T12:26:49;5.53;;;3.50;;
16766;SDS011;8501;49.926;8.404;2023-04-29T12:29:14;4.80;;;3.50;;
16766;SDS011;8501;49.926;8.404;2023-04-29T12:31:40;7.05;;;3.95;;
16766;SDS011;8501;49.926;8.404;2023-04-29T12:34:07;4.28;;;3.60;;
16766;SDS011;8501;49.926;8.404;2023-04-29T12:36:32;4.70;;;3.80;;
16766;SDS011;8501;49.926;8.404;2023-04-29T12:38:58;5.70;;;3.45;;
16766;SDS011;8501;49.926;8.404;2023-04-29T12:41:38;5.03;;;3.42;;
16766;SDS011;8501;49.926;8.404;2023-04-29T12:44:05;5.60;;;4.60;;
16766;SDS011;8501;49.926;8.404;2023-04-29T12:46:35;5.32;;;4.13;;
16766;SDS011;8501;49.926;8.404;2023-04-29T12:49:03;4.57;;;3.72;;
16766;SDS011;8501;49.926;8.404;2023-04-29T12:51:30;6.20;;;3.90;;
16766;SDS011;8501;49.926;8.404;2023-04-29T12:54:00;5.30;;;3.90;;
16766;SDS011;8501;49.926;8.404;2023-04-29T12:56:39;6.93;;;5.03;;
16766;SDS011;8501;49.926;8.404;2023-04-29T12:59:05;6.38;;;4.95;;
16766;SDS011;8501;49.926;8.404;2023-04-29T13:01:34;16.42;;;9.85;;
16766;SDS011;8501;49.926;8.404;2023-04-29T13:04:00;26.00;;;12.95;;
16766;SDS011;8501;49.926;8.404;2023-04-29T13:06:26;65.38;;;26.95;;
16766;SDS011;8501;49.926;8.404;2023-04-29T13:08:52;72.72;;;29.10;;
16766;SDS011;8501;49.926;8.404;2023-04-29T13:11:18;65.03;;;27.90;;
16766;SDS011;8501;49.926;8.404;2023-04-29T13:13:44;71.03;;;30.55;;
16766;SDS011;8501;49.926;8.404;2023-04-29T13:16:10;83.32;;;35.00;;
16766;SDS011;8501;49.926;8.404;2023-04-29T13:18:35;44.85;;;21.13;;
16766;SDS011;8501;49.926;8.404;2023-04-29T13:21:01;25.48;;;13.98;;
16766;SDS011;8501;49.926;8.404;2023-04-29T13:23:28;26.77;;;13.20;;
16766;SDS011;8501;49.926;8.404;2023-04-29T13:25:53;168.43;;;61.95;;
16766;SDS011;8501;49.926;8.404;2023-04-29T13:28:19;32.60;;;21.43;;
16766;SDS011;8501;49.926;8.404;2023-04-29T13:30:46;62.40;;;34.17;;
16766;SDS011;8501;49.926;8.404;2023-04-29T13:33:11;23.15;;;13.10;;
16766;SDS011;8501;49.926;8.404;2023-04-29T13:35:37;12.53;;;8.37;;
16766;SDS011;8501;49.926;8.404;2023-04-29T13:38:04;6.75;;;4.50;;
16766;SDS011;8501;49.926;8.404;2023-04-29T13:40:29;6.15;;;5.32;;
16766;SDS011;8501;49.926;8.404;2023-04-29T13:42:55;14.63;;;8.55;;
16766;SDS011;8501;49.926;8.404;2023-04-29T13:45:21;10.00;;;5.47;;
16766;SDS011;8501;49.926;8.404;2023-04-29T13:47:46;6.32;;;4.82;;
16766;SDS011;8501;49.926;8.404;2023-04-29T13:50:12;5.22;;;3.90;;
16766;SDS011;8501;49.926;8.404;2023-04-29T13:52:37;5.80;;;3.80;;
16766;SDS011;8501;49.926;8.404;2023-04-29T13:55:03;5.05;;;3.97;;
16766;SDS011;8501;49.926;8.404;2023-04-29T13:57:29;4.85;;;4.35;;
16766;SDS011;8501;49.926;8.404;2023-04-29T13:59:54;7.18;;;5.28;;
16766;SDS011;8501;49.926;8.404;2023-04-29T14:02:20;10.38;;;8.32;;
16766;SDS011;8501;49.926;8.404;2023-04-29T14:04:46;5.65;;;5.05;;
16766;SDS011;8501;49.926;8.404;2023-04-29T14:07:15;6.68;;;5.68;;
16766;SDS011;8501;49.926;8.404;2023-04-29T14:09:41;8.40;;;6.95;;
16766;SDS011;8501;49.926;8.404;2023-04-29T14:12:06;9.73;;;6.45;;
16766;SDS011;8501;49.926;8.404;2023-04-29T14:14:32;7.80;;;5.72;;
16766;SDS011;8501;49.926;8.404;2023-04-29T14:16:57;14.75;;;9.00;;
16766;SDS011;8501;49.926;8.404;2023-04-29T14:19:25;9.48;;;7.13;;
16766;SDS011;8501;49.926;8.404;2023-04-29T14:21:50;14.25;;;10.10;;
16766;SDS011;8501;49.926;8.404;2023-04-29T14:24:16;18.73;;;11.32;;
16766;SDS011;8501;49.926;8.404;2023-04-29T14:26:41;10.35;;;7.88;;
16766;SDS011;8501;49.926;8.404;2023-04-29T14:29:07;15.95;;;11.70;;
16766;SDS011;8501;49.926;8.404;2023-04-29T14:31:33;14.23;;;10.07;;
16766;SDS011;8501;49.926;8.404;2023-04-29T14:34:01;15.38;;;9.15;;
16766;SDS011;8501;49.926;8.404;2023-04-29T14:36:27;20.25;;;10.90;;
16766;SDS011;8501;49.926;8.404;2023-04-29T14:42:05;15.10;;;8.98;;
16766;SDS011;8501;49.926;8.404;2023-04-29T14:44:30;13.10;;;9.57;;
16766;SDS011;8501;49.926;8.404;2023-04-29T14:46:56;15.88;;;9.68;;
16766;SDS011;8501;49.926;8.404;2023-04-29T14:49:21;14.70;;;9.70;;
16766;SDS011;8501;49.926;8.404;2023-04-29T14:51:47;10.80;;;7.97;;
16766;SDS011;8501;49.926;8.404;2023-04-29T14:54:13;11.85;;;7.97;;
16766;SDS011;8501;49.926;8.404;2023-04-29T14:56:38;10.07;;;7.68;;
16766;SDS011;8501;49.926;8.404;2023-04-29T14:59:04;9.25;;;6.90;;
16766;SDS011;8501;49.926;8.404;2023-04-29T15:01:32;10.85;;;8.32;;
16766;SDS011;8501;49.926;8.404;2023-04-29T15:03:58;13.95;;;9.13;;
16766;SDS011;8501;49.926;8.404;2023-04-29T15:06:24;12.05;;;8.95;;
16766;SDS011;8501;49.926;8.404;2023-04-29T15:08:51;11.70;;;8.57;;
16766;SDS011;8501;49.926;8.404;2023-04-29T15:11:17;9.15;;;6.90;;